createdAt,value
2018-05-17T00:00:39.264Z,99.99
2018-05-17T00:01:39.220Z,99.99
2018-05-17T00:02:39.211Z,99.99
2018-05-17T00:03:39.147Z,99.99
2018-05-17T00:04:39.187Z,99.99
2018-05-17T00:05:39.069Z,99.99
2018-05-17T00:06:39.031Z,99.99
2018-05-17T00:07:39.017Z,99.99
2018-05-17T00:08:38.945Z,99.99
2018-05-17T00:09:38.902Z,99.99
2018-05-17T00:10:38.868Z,99.99
2018-05-17T00:11:38.834Z,99.99
2018-05-17T00:12:38.802Z,99.99
2018-05-17T00:13:38.776Z,99.99
2018-05-17T00:14:38.711Z,99.99
2018-05-17T00:15:38.673Z,99.99
2018-05-17T00:16:49.029Z,99.99
2018-05-17T00:17:38.590Z,99.99
2018-05-17T00:18:38.544Z,99.99
2018-05-17T00:19:38.540Z,99.99
2018-05-17T00:20:38.466Z,99.99
2018-05-17T00:21:38.421Z,99.99
2018-05-17T00:22:38.392Z,99.99
2018-05-17T00:23:38.375Z,99.99
2018-05-17T00:24:38.333Z,99.99
2018-05-17T00:25:38.287Z,99.99
2018-05-17T00:26:38.226Z,99.99
2018-05-17T00:27:38.179Z,99.99
2018-05-17T00:28:38.142Z,99.99
2018-05-17T00:29:38.153Z,99.99
2018-05-17T00:30:38.085Z,99.99
2018-05-17T00:31:38.173Z,99.99
2018-05-17T00:32:38.001Z,99.99
2018-05-17T00:33:37.956Z,99.99
2018-05-17T00:34:37.925Z,99.99
2018-05-17T00:35:37.894Z,99.99
2018-05-17T00:36:37.864Z,99.99
2018-05-17T00:37:37.799Z,99.99
2018-05-17T00:38:37.771Z,99.99
2018-05-17T00:39:37.711Z,99.99
2018-05-17T00:40:37.708Z,99.99
2018-05-17T00:41:37.644Z,99.99
2018-05-17T00:42:37.600Z,99.99
2018-05-17T00:43:37.582Z,99.99
2018-05-17T00:44:37.523Z,99.99
2018-05-17T00:45:37.520Z,99.99
2018-05-17T00:46:37.430Z,99.99
2018-05-17T00:47:37.396Z,99.99
2018-05-17T00:48:37.351Z,99.99
2018-05-17T00:49:37.326Z,99.99
2018-05-17T00:50:37.310Z,99.99
2018-05-17T00:51:37.268Z,99.99
2018-05-17T00:52:37.217Z,99.99
2018-05-17T00:53:37.154Z,99.99
2018-05-17T00:54:37.157Z,99.99
2018-05-17T00:55:37.081Z,99.99
2018-05-17T00:56:37.054Z,99.99
2018-05-17T00:57:46.587Z,99.99
2018-05-17T00:58:36.951Z,99.99
2018-05-17T00:59:36.944Z,99.99
2018-05-17T01:00:36.882Z,99.99
2018-05-17T01:01:36.855Z,99.99
2018-05-17T01:02:36.831Z,99.99
2018-05-17T01:03:36.753Z,99.99
2018-05-17T01:04:36.709Z,99.99
2018-05-17T01:05:36.672Z,99.99
2018-05-17T01:06:36.636Z,99.99
2018-05-17T01:07:36.600Z,99.99
2018-05-17T01:08:36.586Z,99.99
2018-05-17T01:09:36.515Z,99.99
2018-05-17T01:10:36.469Z,99.99
2018-05-17T01:11:36.487Z,99.99
2018-05-17T01:12:36.427Z,99.99
2018-05-17T01:13:36.366Z,99.99
2018-05-17T01:14:36.341Z,99.99
2018-05-17T01:15:36.269Z,99.99
2018-05-17T01:16:36.251Z,99.99
2018-05-17T01:17:36.199Z,99.99
2018-05-17T01:18:36.158Z,99.99
2018-05-17T01:19:36.139Z,99.99
2018-05-17T01:20:36.080Z,99.99
2018-05-17T01:21:36.043Z,99.99
2018-05-17T01:22:36.002Z,99.99
2018-05-17T01:23:35.956Z,99.99
2018-05-17T01:24:35.974Z,99.99
2018-05-17T01:25:35.889Z,99.99
2018-05-17T01:26:35.853Z,99.99
2018-05-17T01:27:35.790Z,99.99
2018-05-17T01:28:35.751Z,99.99
2018-05-17T01:29:35.713Z,99.99
2018-05-17T01:30:35.700Z,99.99
2018-05-17T01:31:35.661Z,99.99
2018-05-17T01:32:35.676Z,99.99
2018-05-17T01:33:35.561Z,99.99
2018-05-17T01:34:35.519Z,99.99
2018-05-17T01:35:35.500Z,99.99
2018-05-17T01:36:35.436Z,99.99
2018-05-17T01:37:35.390Z,99.99
2018-05-17T01:38:35.348Z,99.99
2018-05-17T01:39:35.324Z,99.99
2018-05-17T01:40:35.292Z,99.99
2018-05-17T01:41:35.254Z,99.99
2018-05-17T01:42:35.287Z,99.99
2018-05-17T01:43:35.183Z,99.99
2018-05-17T01:44:35.133Z,99.99
2018-05-17T01:45:35.157Z,99.99
2018-05-17T01:46:35.078Z,99.99
2018-05-17T01:47:35.005Z,99.99
2018-05-17T01:48:34.956Z,99.99
2018-05-17T01:49:34.921Z,99.99
2018-05-17T01:50:34.907Z,99.99
2018-05-17T01:51:34.908Z,99.99
2018-05-17T01:52:34.881Z,99.99
2018-05-17T01:53:45.097Z,99.99
2018-05-17T01:54:34.710Z,99.99
2018-05-17T01:55:34.677Z,99.99
2018-05-17T01:56:34.637Z,99.99
2018-05-17T01:57:34.614Z,99.99
2018-05-17T01:58:34.546Z,99.99
2018-05-17T01:59:34.545Z,99.99
2018-05-17T02:00:34.483Z,99.99
2018-05-17T02:01:34.458Z,99.99
2018-05-17T02:02:34.417Z,99.99
2018-05-17T02:03:34.354Z,99.99
2018-05-17T02:04:34.321Z,99.99
2018-05-17T02:05:34.291Z,99.99
2018-05-17T02:06:34.231Z,99.99
2018-05-17T02:07:34.215Z,99.99
2018-05-17T02:08:34.149Z,99.99
2018-05-17T02:09:34.119Z,99.99
2018-05-17T02:10:34.102Z,99.99
2018-05-17T02:11:34.031Z,99.99
2018-05-17T02:12:34.020Z,99.99
2018-05-17T02:13:34.006Z,99.99
2018-05-17T02:14:33.949Z,99.99
2018-05-17T02:15:33.919Z,99.99
2018-05-17T02:16:44.122Z,99.99
2018-05-17T02:17:33.789Z,99.99
2018-05-17T02:18:33.750Z,99.99
2018-05-17T02:19:33.738Z,99.99
2018-05-17T02:20:33.676Z,99.99
2018-05-17T02:21:33.628Z,99.99
2018-05-17T02:22:33.594Z,99.99
2018-05-17T02:23:33.558Z,99.99
2018-05-17T02:24:33.530Z,99.99
2018-05-17T02:25:33.469Z,99.99
2018-05-17T02:26:33.436Z,99.99
2018-05-17T02:27:33.387Z,99.99
2018-05-17T02:28:33.349Z,99.99
2018-05-17T02:29:33.328Z,99.99
2018-05-17T02:30:33.285Z,99.99
2018-05-17T02:31:33.234Z,99.99
2018-05-17T02:32:33.219Z,99.99
2018-05-17T02:33:33.154Z,99.99
2018-05-17T02:34:33.139Z,99.99
2018-05-17T02:35:33.093Z,99.99
2018-05-17T02:36:33.035Z,99.99
2018-05-17T02:37:32.987Z,99.99
2018-05-17T02:38:32.982Z,99.99
2018-05-17T02:39:32.935Z,99.99
2018-05-17T02:40:32.874Z,99.99
2018-05-17T02:41:32.851Z,99.99
2018-05-17T02:42:32.783Z,99.99
2018-05-17T02:43:32.749Z,99.99
2018-05-17T02:44:32.716Z,99.99
2018-05-17T02:45:32.667Z,99.99
2018-05-17T02:46:32.653Z,99.99
2018-05-17T02:47:32.581Z,99.99
2018-05-17T02:48:32.539Z,99.99
2018-05-17T02:49:32.601Z,99.99
2018-05-17T02:50:32.465Z,99.99
2018-05-17T02:51:32.431Z,99.99
2018-05-17T02:52:32.408Z,99.99
2018-05-17T02:53:32.353Z,99.99
2018-05-17T02:54:32.310Z,99.99
2018-05-17T02:55:32.270Z,99.99
2018-05-17T02:56:32.244Z,99.99
2018-05-17T02:57:32.220Z,99.99
2018-05-17T02:58:32.157Z,99.99
2018-05-17T02:59:32.105Z,99.99
2018-05-17T03:00:32.063Z,99.99
2018-05-17T03:01:32.025Z,99.99
2018-05-17T03:02:31.993Z,99.99
2018-05-17T03:03:32.019Z,99.99
2018-05-17T03:04:31.945Z,99.99
2018-05-17T03:05:31.886Z,99.99
2018-05-17T03:06:31.874Z,99.99
2018-05-17T03:07:31.782Z,99.99
2018-05-17T03:08:31.749Z,99.99
2018-05-17T03:09:31.766Z,99.99
2018-05-17T03:10:31.678Z,99.99
2018-05-17T03:11:31.653Z,99.99
2018-05-17T03:12:31.605Z,99.99
2018-05-17T03:13:31.548Z,99.99
2018-05-17T03:14:31.531Z,99.99
2018-05-17T03:15:31.464Z,99.99
2018-05-17T03:16:31.425Z,99.99
2018-05-17T03:17:31.383Z,99.99
2018-05-17T03:18:31.381Z,99.99
2018-05-17T03:19:31.296Z,99.99
2018-05-17T03:20:31.282Z,99.99
2018-05-17T03:21:31.263Z,99.99
2018-05-17T03:22:31.183Z,99.99
2018-05-17T03:23:31.149Z,99.99
2018-05-17T03:24:31.112Z,99.99
2018-05-17T03:25:31.091Z,99.99
2018-05-17T03:26:31.021Z,99.99
2018-05-17T03:27:30.974Z,99.99
2018-05-17T03:28:30.935Z,99.99
2018-05-17T03:29:30.898Z,99.99
2018-05-17T03:30:30.866Z,99.99
2018-05-17T03:31:30.836Z,99.99
2018-05-17T03:32:30.774Z,99.99
2018-05-17T03:33:30.733Z,99.99
2018-05-17T03:34:30.695Z,99.99
2018-05-17T03:35:30.660Z,99.99
2018-05-17T03:36:30.652Z,99.99
2018-05-17T03:37:30.586Z,99.99
2018-05-17T03:38:30.541Z,99.99
2018-05-17T03:39:30.498Z,99.99
2018-05-17T03:40:30.459Z,99.99
2018-05-17T03:41:30.416Z,99.99
2018-05-17T03:42:30.401Z,99.99
2018-05-17T03:43:30.336Z,99.99
2018-05-17T03:44:30.313Z,99.99
2018-05-17T03:45:30.251Z,99.99
2018-05-17T03:46:30.234Z,99.99
2018-05-17T03:47:30.200Z,99.99
2018-05-17T03:48:30.137Z,99.99
2018-05-17T03:49:30.099Z,99.99
2018-05-17T03:50:30.055Z,99.99
2018-05-17T03:51:30.006Z,99.99
2018-05-17T03:52:29.996Z,99.99
2018-05-17T03:53:29.934Z,99.99
2018-05-17T03:54:29.892Z,99.99
2018-05-17T03:55:29.855Z,99.99
2018-05-17T03:56:29.822Z,99.99
2018-05-17T03:57:29.804Z,99.99
2018-05-17T03:58:29.736Z,99.99
2018-05-17T03:59:29.691Z,99.99
2018-05-17T04:00:29.653Z,99.99
2018-05-17T04:01:29.615Z,99.99
2018-05-17T04:02:29.574Z,99.99
2018-05-17T04:03:29.556Z,99.99
2018-05-17T04:04:29.498Z,99.99
2018-05-17T04:05:29.455Z,99.99
2018-05-17T04:06:29.407Z,99.99
2018-05-17T04:07:29.378Z,99.99
2018-05-17T04:08:29.382Z,99.99
2018-05-17T04:09:29.313Z,99.84
2018-05-17T04:10:29.258Z,99.99
2018-05-17T04:11:29.219Z,99.99
2018-05-17T04:12:29.258Z,99.99
2018-05-17T04:13:29.136Z,99.69
2018-05-17T04:14:29.173Z,99.99
2018-05-17T04:15:29.070Z,99.99
2018-05-17T04:16:29.140Z,99.99
2018-05-17T04:17:28.975Z,99.69
2018-05-17T04:18:28.931Z,99.32
2018-05-17T04:19:28.931Z,99.89
2018-05-17T04:20:28.856Z,99.32
2018-05-17T04:21:28.870Z,99.99
2018-05-17T04:22:28.773Z,99.99
2018-05-17T04:23:28.726Z,99.99
2018-05-17T04:24:28.685Z,99.99
2018-05-17T04:25:28.671Z,99.99
2018-05-17T04:26:28.607Z,99.99
2018-05-17T04:27:28.575Z,99.99
2018-05-17T04:28:28.570Z,99.99
2018-05-17T04:29:28.500Z,99.89
2018-05-17T04:30:28.510Z,99.99
2018-05-17T04:31:28.415Z,99.99
2018-05-17T04:32:28.382Z,99.99
2018-05-17T04:33:28.363Z,99.99
2018-05-17T04:34:28.292Z,99.99
2018-05-17T04:35:28.313Z,99.99
2018-05-17T04:36:28.264Z,99.99
2018-05-17T04:37:28.227Z,99.65
2018-05-17T04:38:28.215Z,99.99
2018-05-17T04:39:28.101Z,99.99
2018-05-17T04:40:28.083Z,99.94
2018-05-17T04:41:28.013Z,99.99
2018-05-17T04:42:28.007Z,99.18
2018-05-17T04:43:27.957Z,99.75
2018-05-17T04:44:27.892Z,98.99
2018-05-17T04:45:27.841Z,98.51
2018-05-17T04:46:27.801Z,99.27
2018-05-17T04:47:27.795Z,99.65
2018-05-17T04:48:27.727Z,99.55
2018-05-17T04:49:27.680Z,99.08
2018-05-17T04:50:27.636Z,98.79
2018-05-17T04:51:27.607Z,98.70
2018-05-17T04:52:27.566Z,99.37
2018-05-17T04:53:27.558Z,99.08
2018-05-17T04:54:27.491Z,98.99
2018-05-17T04:55:27.444Z,99.37
2018-05-17T04:56:27.417Z,98.60
2018-05-17T04:57:27.376Z,98.03
2018-05-17T04:58:27.349Z,98.03
2018-05-17T04:59:27.284Z,98.56
2018-05-17T05:00:27.245Z,99.60
2018-05-17T05:01:27.208Z,98.08
2018-05-17T05:02:27.189Z,98.08
2018-05-17T05:03:27.122Z,97.70
2018-05-17T05:04:27.108Z,97.51
2018-05-17T05:05:27.060Z,97.03
2018-05-17T05:06:27.023Z,96.94
2018-05-17T05:07:26.973Z,97.41
2018-05-17T05:08:26.958Z,97.61
2018-05-17T05:09:27.034Z,97.89
2018-05-17T05:10:26.861Z,97.51
2018-05-17T05:11:26.812Z,96.56
2018-05-17T05:12:26.775Z,97.32
2018-05-17T05:13:26.818Z,96.94
2018-05-17T05:14:26.689Z,96.27
2018-05-17T05:15:26.671Z,95.79
2018-05-17T05:16:26.611Z,95.12
2018-05-17T05:17:26.568Z,94.46
2018-05-17T05:18:26.526Z,95.70
2018-05-17T05:19:26.504Z,95.51
2018-05-17T05:20:26.490Z,95.12
2018-05-17T05:21:26.407Z,94.27
2018-05-17T05:22:26.373Z,94.56
2018-05-17T05:23:26.341Z,94.46
2018-05-17T05:24:26.297Z,95.41
2018-05-17T05:25:26.293Z,93.84
2018-05-17T05:26:26.215Z,93.03
2018-05-17T05:27:26.170Z,93.70
2018-05-17T05:28:26.130Z,92.93
2018-05-17T05:29:26.095Z,93.32
2018-05-17T05:30:26.057Z,93.70
2018-05-17T05:31:26.046Z,93.22
2018-05-17T05:32:25.982Z,93.70
2018-05-17T05:33:25.953Z,93.93
2018-05-17T05:34:25.899Z,92.50
2018-05-17T05:35:25.854Z,91.93
2018-05-17T05:36:25.866Z,90.79
2018-05-17T05:37:25.781Z,90.69
2018-05-17T05:38:25.743Z,91.74
2018-05-17T05:39:25.714Z,91.74
2018-05-17T05:40:25.676Z,90.59
2018-05-17T05:41:25.644Z,91.07
2018-05-17T05:42:25.579Z,90.88
2018-05-17T05:43:25.552Z,91.12
2018-05-17T05:44:25.524Z,90.36
2018-05-17T05:45:25.476Z,89.40
2018-05-17T05:46:25.461Z,88.64
2018-05-17T05:47:25.387Z,87.49
2018-05-17T05:48:25.348Z,87.78
2018-05-17T05:49:25.374Z,87.78
2018-05-17T05:50:25.271Z,87.49
2018-05-17T05:51:25.232Z,88.54
2018-05-17T05:52:25.264Z,87.45
2018-05-17T05:53:25.155Z,90.41
2018-05-17T05:54:25.108Z,90.36
2018-05-17T05:55:25.081Z,87.63
2018-05-17T05:56:25.061Z,86.58
2018-05-17T05:57:25.029Z,86.77
2018-05-17T05:58:24.960Z,86.01
2018-05-17T05:59:24.910Z,85.44
2018-05-17T06:00:24.896Z,85.91
2018-05-17T06:01:24.871Z,85.48
2018-05-17T06:02:24.895Z,84.23
2018-05-17T06:03:24.788Z,84.14
2018-05-17T06:04:24.727Z,83.67
2018-05-17T06:05:24.698Z,83.09
2018-05-17T06:06:24.654Z,82.90
2018-05-17T06:07:24.668Z,83.57
2018-05-17T06:08:24.666Z,83.86
2018-05-17T06:09:24.550Z,83.80
2018-05-17T06:10:24.498Z,83.13
2018-05-17T06:11:24.450Z,81.89
2018-05-17T06:12:24.440Z,79.73
2018-05-17T06:13:24.375Z,79.93
2018-05-17T06:14:24.343Z,78.81
2018-05-17T06:15:24.310Z,76.33
2018-05-17T06:16:24.265Z,75.62
2018-05-17T06:17:24.247Z,77.82
2018-05-17T06:18:24.210Z,79.31
2018-05-17T06:19:24.138Z,79.64
2018-05-17T06:20:24.101Z,79.16
2018-05-17T06:21:24.075Z,78.24
2018-05-17T06:22:24.026Z,77.00
2018-05-17T06:23:24.018Z,76.04
2018-05-17T06:24:23.959Z,76.14
2018-05-17T06:25:23.918Z,75.37
2018-05-17T06:26:23.870Z,75.89
2018-05-17T06:27:23.840Z,75.79
2018-05-17T06:28:23.809Z,76.14
2018-05-17T06:29:23.826Z,75.95
2018-05-17T06:30:23.828Z,75.56
2018-05-17T06:31:23.692Z,75.37
2018-05-17T06:32:23.661Z,76.77
2018-05-17T06:33:33.711Z,75.81
2018-05-17T06:34:23.612Z,76.96
2018-05-17T06:35:23.547Z,75.85
2018-05-17T06:36:23.508Z,74.48
2018-05-17T06:37:23.465Z,76.52
2018-05-17T06:38:23.433Z,75.76
2018-05-17T06:39:23.402Z,75.27
2018-05-17T06:40:23.398Z,73.47
2018-05-17T06:41:23.318Z,72.03
2018-05-17T06:42:23.299Z,71.81
2018-05-17T06:43:23.242Z,72.19
2018-05-17T06:44:23.223Z,72.63
2018-05-17T06:45:23.252Z,72.73
2018-05-17T06:46:23.145Z,72.29
2018-05-17T06:47:23.109Z,72.38
2018-05-17T06:48:23.065Z,71.84
2018-05-17T06:49:23.018Z,71.62
2018-05-17T06:50:23.010Z,71.23
2018-05-17T06:51:22.945Z,70.47
2018-05-17T06:52:22.912Z,72.00
2018-05-17T06:53:22.885Z,73.69
2018-05-17T06:54:22.848Z,73.40
2018-05-17T06:55:22.803Z,74.55
2018-05-17T06:56:22.782Z,74.61
2018-05-17T06:57:22.732Z,75.56
2018-05-17T06:58:22.705Z,75.95
2018-05-17T06:59:22.664Z,75.91
2018-05-17T07:00:22.617Z,75.62
2018-05-17T07:01:22.589Z,75.81
2018-05-17T07:02:22.615Z,75.81
2018-05-17T07:03:22.510Z,76.86
2018-05-17T07:04:22.484Z,76.77
2018-05-17T07:05:22.446Z,76.86
2018-05-17T07:06:22.404Z,75.37
2018-05-17T07:07:22.406Z,74.41
2018-05-17T07:08:22.407Z,74.99
2018-05-17T07:09:22.287Z,75.09
2018-05-17T07:10:22.269Z,75.41
2018-05-17T07:11:22.213Z,73.84
2018-05-17T07:12:22.226Z,75.09
2018-05-17T07:13:22.174Z,74.90
2018-05-17T07:14:22.127Z,74.49
2018-05-17T07:15:22.067Z,71.84
2018-05-17T07:16:22.034Z,70.83
2018-05-17T07:17:22.023Z,65.97
2018-05-17T07:18:22.169Z,70.43
2018-05-17T07:19:21.931Z,69.93
2018-05-17T07:20:21.895Z,68.87
2018-05-17T07:21:21.861Z,68.46
2018-05-17T07:22:21.807Z,66.80
2018-05-17T07:23:21.767Z,63.92
2018-05-17T07:24:21.756Z,63.73
2018-05-17T07:25:21.711Z,60.37
2018-05-17T07:26:21.668Z,59.37
2018-05-17T07:27:21.641Z,55.23
2018-05-17T07:28:21.582Z,58.61
2018-05-17T07:29:21.592Z,61.14
2018-05-17T07:30:31.748Z,63.51
2018-05-17T07:31:21.565Z,64.79
2018-05-17T07:32:21.440Z,66.25
2018-05-17T07:33:21.398Z,68.46
2018-05-17T07:34:21.387Z,69.89
2018-05-17T07:35:21.339Z,70.47
2018-05-17T07:36:21.307Z,69.80
2018-05-17T07:37:21.260Z,70.56
2018-05-17T07:38:21.237Z,70.31
2018-05-17T07:39:21.248Z,68.24
2018-05-17T07:40:21.154Z,68.33
2018-05-17T07:41:21.125Z,67.50
2018-05-17T07:42:21.091Z,65.30
2018-05-17T07:43:21.049Z,64.18
2018-05-17T07:44:21.042Z,62.52
2018-05-17T07:45:20.975Z,61.01
2018-05-17T07:46:20.945Z,60.85
2018-05-17T07:47:20.928Z,58.89
2018-05-17T07:48:20.875Z,56.70
2018-05-17T07:49:20.864Z,56.05
2018-05-17T07:50:20.809Z,53.55
2018-05-17T07:51:20.776Z,54.08
2018-05-17T07:52:20.736Z,55.43
2018-05-17T07:53:20.717Z,57.87
2018-05-17T07:54:20.671Z,56.43
2018-05-17T07:55:20.646Z,57.03
2018-05-17T07:56:20.603Z,57.90
2018-05-17T07:57:20.580Z,55.52
2018-05-17T07:58:20.562Z,55.44
2018-05-17T07:59:20.515Z,56.43
2018-05-17T08:00:20.489Z,57.71
2018-05-17T08:01:20.435Z,60.08
2018-05-17T08:02:20.415Z,61.05
2018-05-17T08:03:20.382Z,62.36
2018-05-17T08:04:20.344Z,61.27
2018-05-17T08:05:20.341Z,58.92
2018-05-17T08:06:20.294Z,57.75
2018-05-17T08:07:20.261Z,58.42
2018-05-17T08:08:30.867Z,57.00
2018-05-17T08:09:20.179Z,57.00
2018-05-17T08:10:20.152Z,58.58
2018-05-17T08:11:20.097Z,59.86
2018-05-17T08:12:20.066Z,59.05
2018-05-17T08:13:20.052Z,56.74
2018-05-17T08:14:19.995Z,56.48
2018-05-17T08:15:19.963Z,54.94
2018-05-17T08:16:19.943Z,53.76
2018-05-17T08:17:19.919Z,54.89
2018-05-17T08:18:19.886Z,55.66
2018-05-17T08:19:19.848Z,58.06
2018-05-17T08:20:19.796Z,57.45
2018-05-17T08:21:19.806Z,55.11
2018-05-17T08:22:19.730Z,54.17
2018-05-17T08:23:19.720Z,53.78
2018-05-17T08:24:19.690Z,54.39
2018-05-17T08:25:19.647Z,53.96
2018-05-17T08:26:19.608Z,53.59
2018-05-17T08:27:19.593Z,54.20
2018-05-17T08:28:19.556Z,53.74
2018-05-17T08:29:19.522Z,53.45
2018-05-17T08:30:19.480Z,53.27
2018-05-17T08:31:19.443Z,53.19
2018-05-17T08:32:19.454Z,52.71
2018-05-17T08:33:19.366Z,52.78
2018-05-17T08:34:19.352Z,52.59
2018-05-17T08:35:19.302Z,52.78
2018-05-17T08:36:19.435Z,51.24
2018-05-17T08:37:19.279Z,52.63
2018-05-17T08:38:19.230Z,53.38
2018-05-17T08:39:19.200Z,55.62
2018-05-17T08:40:19.167Z,54.85
2018-05-17T08:41:19.127Z,53.69
2018-05-17T08:42:19.112Z,57.60
2018-05-17T08:43:19.063Z,57.87
2018-05-17T08:44:19.049Z,58.86
2018-05-17T08:45:19.009Z,58.15
2018-05-17T08:46:18.966Z,60.39
2018-05-17T08:47:18.964Z,58.61
2018-05-17T08:48:18.904Z,59.92
2018-05-17T08:49:18.895Z,59.73
2018-05-17T08:50:18.860Z,59.76
2018-05-17T08:51:18.831Z,59.73
2018-05-17T08:52:18.810Z,61.14
2018-05-17T08:53:18.734Z,61.33
2018-05-17T08:54:18.799Z,61.08
2018-05-17T08:55:18.682Z,58.99
2018-05-17T08:56:27.197Z,58.12
2018-05-17T08:57:18.613Z,55.81
2018-05-17T08:58:18.600Z,54.05
2018-05-17T08:59:18.543Z,56.52
2018-05-17T09:00:18.511Z,56.74
2018-05-17T09:01:18.505Z,56.29
2018-05-17T09:02:18.454Z,54.97
2018-05-17T09:03:18.428Z,53.65
2018-05-17T09:04:18.370Z,52.40
2018-05-17T09:05:18.344Z,52.56
2018-05-17T09:06:18.441Z,54.20
2018-05-17T09:07:18.285Z,53.45
2018-05-17T09:08:18.261Z,52.59
2018-05-17T09:09:18.224Z,53.65
2018-05-17T09:10:18.193Z,52.97
2018-05-17T09:11:18.224Z,52.20
2018-05-17T09:12:18.146Z,52.91
2018-05-17T09:13:18.108Z,50.49
2018-05-17T09:14:18.093Z,51.00
2018-05-17T09:15:18.033Z,50.71
2018-05-17T09:16:18.041Z,50.78
2018-05-17T09:17:17.969Z,50.32
2018-05-17T09:18:17.937Z,49.94
2018-05-17T09:19:17.923Z,50.32
2018-05-17T09:20:18.016Z,48.49
2018-05-17T09:21:17.864Z,48.95
2018-05-17T09:22:17.878Z,49.10
2018-05-17T09:23:17.785Z,51.96
2018-05-17T09:24:17.755Z,53.31
2018-05-17T09:25:17.732Z,54.27
2018-05-17T09:26:17.698Z,53.43
2018-05-17T09:27:17.673Z,53.45
2018-05-17T09:28:17.665Z,53.45
2018-05-17T09:29:17.608Z,52.34
2018-05-17T09:30:17.561Z,53.57
2018-05-17T09:31:17.554Z,53.45
2018-05-17T09:32:17.509Z,54.22
2018-05-17T09:33:17.478Z,54.72
2018-05-17T09:34:17.471Z,54.72
2018-05-17T09:35:17.421Z,54.05
2018-05-17T09:36:17.387Z,54.53
2018-05-17T09:37:17.352Z,54.75
2018-05-17T09:38:17.331Z,54.03
2018-05-17T09:39:17.324Z,52.59
2018-05-17T09:40:17.262Z,52.59
2018-05-17T09:41:17.294Z,52.71
2018-05-17T09:42:17.197Z,52.71
2018-05-17T09:43:17.180Z,50.66
2018-05-17T09:44:17.136Z,52.78
2018-05-17T09:45:17.148Z,52.66
2018-05-17T09:46:17.088Z,53.23
2018-05-17T09:47:17.043Z,53.17
2018-05-17T09:48:17.043Z,52.78
2018-05-17T09:49:16.991Z,50.95
2018-05-17T09:50:17.018Z,51.56
2018-05-17T09:51:16.936Z,52.52
2018-05-17T09:52:16.926Z,51.50
2018-05-17T09:53:16.882Z,52.30
2018-05-17T09:54:16.862Z,53.74
2018-05-17T09:55:16.834Z,53.67
2018-05-17T09:56:16.782Z,49.84
2018-05-17T09:57:16.753Z,50.64
2018-05-17T09:58:16.730Z,48.88
2018-05-17T09:59:16.695Z,49.55
2018-05-17T10:00:16.689Z,48.18
2018-05-17T10:01:16.642Z,52.45
2018-05-17T10:02:16.601Z,51.07
2018-05-17T10:03:16.577Z,50.78
2018-05-17T10:04:16.551Z,49.99
2018-05-17T10:05:16.589Z,49.41
2018-05-17T10:06:16.505Z,49.91
2018-05-17T10:07:16.453Z,49.22
2018-05-17T10:08:16.430Z,49.68
2018-05-17T10:09:16.399Z,50.99
2018-05-17T10:10:16.380Z,51.93
2018-05-17T10:11:16.346Z,52.51
2018-05-17T10:12:16.315Z,53.54
2018-05-17T10:13:16.278Z,55.20
2018-05-17T10:14:16.273Z,53.74
2018-05-17T10:15:16.216Z,54.43
2018-05-17T10:16:16.185Z,55.30
2018-05-17T10:17:16.164Z,54.65
2018-05-17T10:18:16.130Z,54.30
2018-05-17T10:19:16.118Z,52.66
2018-05-17T10:20:16.069Z,52.54
2018-05-17T10:21:16.036Z,52.92
2018-05-17T10:22:16.007Z,52.73
2018-05-17T10:23:15.983Z,54.56
2018-05-17T10:24:15.978Z,52.95
2018-05-17T10:25:15.924Z,54.90
2018-05-17T10:26:15.889Z,52.69
2018-05-17T10:27:15.877Z,51.62
2018-05-17T10:28:15.853Z,50.54
2018-05-17T10:29:15.837Z,51.70
2018-05-17T10:30:15.779Z,51.21
2018-05-17T10:31:15.750Z,52.20
2018-05-17T10:32:15.739Z,51.31
2018-05-17T10:33:15.694Z,51.48
2018-05-17T10:34:15.684Z,52.44
2018-05-17T10:35:15.631Z,52.06
2018-05-17T10:36:15.597Z,53.21
2018-05-17T10:37:15.578Z,54.20
2018-05-17T10:38:15.539Z,53.55
2018-05-17T10:39:15.539Z,52.27
2018-05-17T10:40:15.500Z,53.84
2018-05-17T10:41:15.475Z,52.01
2018-05-17T10:42:15.479Z,52.01
2018-05-17T10:43:15.409Z,49.96
2018-05-17T10:44:15.395Z,49.07
2018-05-17T10:45:15.335Z,50.42
2018-05-17T10:46:15.315Z,49.82
2018-05-17T10:47:15.288Z,50.87
2018-05-17T10:48:15.278Z,51.57
2018-05-17T10:49:15.221Z,50.97
2018-05-17T10:50:15.190Z,52.36
2018-05-17T10:51:15.166Z,55.05
2018-05-17T10:52:15.143Z,56.52
2018-05-17T10:53:15.134Z,55.68
2018-05-17T10:54:15.080Z,57.73
2018-05-17T10:55:15.043Z,56.29
2018-05-17T10:56:15.015Z,54.46
2018-05-17T10:57:14.983Z,54.36
2018-05-17T10:58:14.979Z,53.96
2018-05-17T10:59:14.935Z,53.76
2018-05-17T11:00:14.904Z,54.82
2018-05-17T11:01:14.875Z,53.35
2018-05-17T11:02:14.848Z,54.91
2018-05-17T11:03:14.838Z,55.52
2018-05-17T11:04:14.802Z,56.48
2018-05-17T11:05:14.762Z,53.88
2018-05-17T11:06:14.731Z,53.53
2018-05-17T11:07:14.698Z,51.31
2018-05-17T11:08:14.688Z,50.83
2018-05-17T11:09:14.634Z,51.79
2018-05-17T11:10:14.603Z,52.40
2018-05-17T11:11:14.583Z,50.27
2018-05-17T11:12:14.589Z,49.99
2018-05-17T11:13:14.583Z,49.19
2018-05-17T11:14:14.497Z,49.96
2018-05-17T11:15:14.481Z,48.49
2018-05-17T11:16:14.445Z,51.21
2018-05-17T11:17:14.423Z,50.93
2018-05-17T11:18:14.399Z,50.54
2018-05-17T11:19:14.354Z,50.45
2018-05-17T11:20:14.327Z,49.96
2018-05-17T11:21:14.289Z,50.25
2018-05-17T11:22:14.257Z,51.12
2018-05-17T11:23:14.261Z,49.84
2018-05-17T11:24:14.218Z,50.99
2018-05-17T11:25:14.181Z,50.73
2018-05-17T11:26:14.153Z,52.47
2018-05-17T11:27:14.138Z,52.85
2018-05-17T11:28:14.089Z,54.10
2018-05-17T11:29:14.096Z,50.81
2018-05-17T11:30:14.048Z,51.31
2018-05-17T11:31:14.014Z,49.91
2018-05-17T11:32:14.008Z,51.76
2018-05-17T11:33:13.952Z,52.63
2018-05-17T11:34:13.922Z,50.83
2018-05-17T11:35:13.895Z,52.75
2018-05-17T11:36:13.857Z,52.59
2018-05-17T11:37:13.862Z,50.76
2018-05-17T11:38:13.810Z,51.24
2018-05-17T11:39:13.772Z,50.95
2018-05-17T11:40:13.745Z,49.77
2018-05-17T11:41:13.717Z,51.57
2018-05-17T11:42:13.712Z,51.12
2018-05-17T11:43:13.670Z,53.74
2018-05-17T11:44:13.652Z,52.08
2018-05-17T11:45:13.608Z,52.87
2018-05-17T11:46:13.590Z,49.58
2018-05-17T11:47:13.568Z,50.81
2018-05-17T11:48:13.522Z,51.38
2018-05-17T11:49:13.491Z,51.19
2018-05-17T11:50:13.464Z,52.27
2018-05-17T11:51:13.440Z,48.59
2018-05-17T11:52:13.456Z,50.04
2018-05-17T11:53:13.380Z,50.06
2018-05-17T11:54:13.350Z,49.70
2018-05-17T11:55:13.326Z,47.77
2018-05-17T11:56:13.298Z,47.56
2018-05-17T11:57:13.294Z,48.13
2018-05-17T11:58:13.243Z,47.24
2018-05-17T11:59:13.204Z,47.53
2018-05-17T12:00:13.179Z,48.40
2018-05-17T12:01:13.177Z,49.27
2018-05-17T12:02:13.125Z,50.42
2018-05-17T12:03:13.105Z,50.73
2018-05-17T12:04:13.076Z,51.38
2018-05-17T12:05:13.089Z,52.56
2018-05-17T12:06:13.052Z,53.62
2018-05-17T12:07:13.055Z,52.69
2018-05-17T12:08:12.957Z,52.11
2018-05-17T12:09:12.931Z,51.41
2018-05-17T12:10:12.916Z,52.11
2018-05-17T12:11:12.902Z,52.11
2018-05-17T12:12:12.842Z,50.47
2018-05-17T12:13:12.841Z,50.49
2018-05-17T12:14:12.810Z,48.76
2018-05-17T12:15:12.773Z,48.28
2018-05-17T12:16:12.740Z,47.39
2018-05-17T12:17:12.749Z,47.58
2018-05-17T12:18:12.684Z,46.81
2018-05-17T12:19:12.650Z,47.17
2018-05-17T12:20:12.625Z,48.03
2018-05-17T12:21:12.593Z,49.68
2018-05-17T12:22:12.566Z,48.23
2018-05-17T12:23:12.562Z,49.84
2018-05-17T12:24:12.523Z,49.68
2018-05-17T12:25:12.484Z,49.19
2018-05-17T12:26:12.449Z,50.06
2018-05-17T12:27:12.426Z,50.04
2018-05-17T12:28:22.955Z,50.90
2018-05-17T12:29:12.361Z,51.57
2018-05-17T12:30:12.333Z,50.32
2018-05-17T12:31:12.302Z,50.42
2018-05-17T12:32:12.286Z,50.61
2018-05-17T12:33:12.283Z,51.35
2018-05-17T12:34:12.226Z,51.64
2018-05-17T12:35:12.198Z,51.26
2018-05-17T12:36:12.170Z,52.51
2018-05-17T12:37:12.220Z,52.70
2018-05-17T12:38:12.131Z,52.80
2018-05-17T12:39:12.094Z,52.03
2018-05-17T12:40:12.053Z,52.42
2018-05-17T12:41:12.030Z,52.80
2018-05-17T12:42:12.025Z,52.32
2018-05-17T12:43:12.002Z,52.12
2018-05-17T12:44:11.945Z,51.55
2018-05-17T12:45:11.921Z,51.64
2018-05-17T12:46:11.885Z,52.03
2018-05-17T12:47:11.861Z,50.40
2018-05-17T12:48:11.853Z,50.40
2018-05-17T12:49:11.820Z,48.95
2018-05-17T12:50:11.790Z,50.04
2018-05-17T12:51:23.019Z,50.04
2018-05-17T12:52:11.713Z,50.04